Pagrindinis puslapis
METAR-TAF:

METAR-TAF

Oro uostai :

St. George, Aliaska, Jungtinės Amerikos Valstijos

platuma: 56-34-43N, ilguma: 169-39-41W, Aukštis: 38 m

Dabartinis oras

Ataskaita buvo paskelbta 15 minutes, ne 19:16 UTC
Vėjas 12 kt iš Vakarų su gūsio iki 19 kt
Temperatūra -1°C
Drėgmė 86%
Slėgis 998 hPa
Matomumas: 1.6 km
Mažai debesys ne aukštis 700 ft
Su prošvaistėmis ne aukštis 1500 ft
Apsiniaukę ne aukštis 3700 ft
sniegas, rūkana

METAR: PAPB 121916Z AUTO 28012G19KT 1SM -SN BR FEW007 BKN015 OVC037 M01/M03 A2946 RMK AO2 P0000 T10111028 TSNO

Laikas: 11:31 (19:31 UTC)


TAF: trūkstamas

Orai ataskaitas ir orų prognozės (METAR, TAF).

turimą stotys yra geltonos ir raudonos taškus žemėlapyje.

Perkelti pele per norėdami pamatyti stoties vardą.

Tada spustelėkite, norėdami matyti oro stebėjimo ir prognozės.

Norėdami pakeisti žemėlapį: spustelėkite ant žalios mygtukų su juodo kryžiaus žemyn,; žalią mygtuką su brūkšneliu, jei norite nutolinti; arba žalių rodyklių gretimoms žemėlapius.


METAR-TAF: